Hauptseite
METAR-TAF:

METAR-TAF

Flughäfen :

Bahrain, Bahrain

Flughafen Bahrain

Breite: 26-16N, Länge: 050-39E, Höhe: 2 m

Beobachtung

Neuester Wetterbericht von vor 22 Minuten, um 08:00 UTC
Wind 10 kt aus Nord
Temperatur 34°C
Luftfeuchtigkeit 23%
Luftdruck 1010 hPa
Sichtweite 10 km oder mehr
keine Wolken unter 1500 m und keine Kumulonimbus oder Gewitterwolken

METAR: OBBI 280800Z 36010KT CAVOK 34/10 Q1010 NOSIG

Zeit: 11:22 (08:22 UTC)

Prognose

Neuester Wetterbericht von vor 3 Stunden und 22 Minuten, um 05:00 UTC
Gültige Prognose vom 28 um 06 UTC bis 29 um 12 UTC
Wind 5 kt aus unterschiedlichen Richtungen
Sichtweite 10 km oder mehr
keine Wolken unter 1500 m und keine Kumulonimbus oder Gewitterwolken

TAF: OBBI 280500Z 2806/2912 VRB05KT CAVOK

Wetterbeobachtungen und Prognosen von mehr als 4000 Flughäfen (METAR und TAF Bericht).

Die verfügbaren Stationen werden durch gelbe und rote Markierungen auf der Karte dargestellt.

Führen Sie die Maus auf sie, um den Namen der Station zu sehen.

Darauf klicken, um die Beobachtung von Wetterbeobachtungen und Prognosen zu sehen.

Um die Karte zu ändern : klicken Sie auf den grünen Tasten mit einem schwarzen Kreuz Zum Vergrößern, auf den grünen Button mit einem Gedankenstrich zu verkleinern, oder auf die grünen Pfeile für benachbarte Karten.


METAR-TAF: